Time;durP1;ratioP1;P1;durP2;ratioP2;P2;SDS_P1;SDS_P2;PMS_P1;PMS_P2;Temp;Humidity;BMP_temperature;BMP_pressure;BME280_temperature;BME280_humidity;BME280_pressure;Samples;Min_cycle;Max_cycle;Signal;HPM_P1;HPM_P2
2022/01/25 00:26:32;;;;;;;8.15;3.92;;;;;;;;;;5090616;28;20047;-75
2022/01/25 00:32:49;;;;;;;7.43;3.05;;;;;;;;;;5090336;28;20044;-74
2022/01/25 00:35:53;;;;;;;8.38;3.47;;;;;;;;;;5094483;28;20202;-74
2022/01/25 00:38:58;;;;;;;7.65;3.17;;;;;;;;;;5094400;28;20044;-74
2022/01/25 00:42:02;;;;;;;5.10;3.15;;;;;;;;;;5094596;28;20043;-74
2022/01/25 00:45:10;;;;;;;3.95;2.72;;;;;;;;;;5094664;28;20048;-74
2022/01/25 00:48:18;;;;;;;6.05;3.50;;;;;;;;;;5094409;28;20028;-74
2022/01/25 00:54:39;;;;;;;3.90;2.88;;;;;;;;;;5094286;28;20028;-74
2022/01/25 00:57:44;;;;;;;5.88;3.08;;;;;;;;;;5082154;28;20040;-74
2022/01/25 01:00:48;;;;;;;7.82;3.20;;;;;;;;;;5069838;28;20032;-74
2022/01/25 01:03:52;;;;;;;5.40;3.17;;;;;;;;;;5093935;28;20032;-74
2022/01/25 01:06:56;;;;;;;6.18;3.30;;;;;;;;;;5093952;28;20036;-74
2022/01/25 01:10:01;;;;;;;8.57;3.35;;;;;;;;;;5093813;28;20044;-74
2022/01/25 01:39:50;;;;;;;4.50;2.30;;;;;;;;;;5093354;28;20596;-74
2022/01/25 01:49:15;;;;;;;7.03;2.38;;;;;;;;;;5080411;28;20036;-73
2022/01/25 01:52:19;;;;;;;4.45;2.67;;;;;;;;;;5093105;28;20044;-73
2022/01/25 01:55:25;;;;;;;4.65;1.95;;;;;;;;;;5092970;28;20044;-73
2022/01/25 01:58:29;;;;;;;3.92;2.33;;;;;;;;;;5093004;28;20480;-73
2022/01/25 02:01:35;;;;;;;4.82;2.50;;;;;;;;;;5093027;28;20028;-74
2022/01/25 02:04:39;;;;;;;7.65;2.42;;;;;;;;;;5080349;28;20036;-73
2022/01/25 02:07:43;;;;;;;4.50;2.45;;;;;;;;;;5092704;28;20044;-74
2022/01/25 02:10:47;;;;;;;4.70;2.60;;;;;;;;;;5092453;28;20059;-74
2022/01/25 02:13:53;;;;;;;5.10;3.00;;;;;;;;;;5092234;28;20035;-73
2022/01/25 02:17:06;;;;;;;4.68;2.45;;;;;;;;;;5092709;28;20032;-73
2022/01/25 02:23:35;;;;;;;4.97;2.63;;;;;;;;;;5092361;28;20048;-73
2022/01/25 02:26:39;;;;;;;5.28;2.50;;;;;;;;;;5092063;28;20440;-73
2022/01/25 02:29:44;;;;;;;5.40;2.63;;;;;;;;;;5092158;28;20040;-73
2022/01/25 02:32:48;;;;;;;5.72;2.55;;;;;;;;;;5091687;28;20036;-74
2022/01/25 02:35:53;;;;;;;4.30;2.42;;;;;;;;;;5092141;28;20044;-74
2022/01/25 02:38:57;;;;;;;4.72;2.33;;;;;;;;;;5079797;28;20040;-74
2022/01/25 02:42:02;;;;;;;6.13;2.60;;;;;;;;;;5092321;28;20479;-73
2022/01/25 02:45:11;;;;;;;4.97;2.53;;;;;;;;;;5092199;28;20040;-73
2022/01/25 02:48:30;;;;;;;5.43;2.63;;;;;;;;;;5091806;28;20035;-74
2022/01/25 02:51:42;;;;;;;5.47;2.58;;;;;;;;;;5091839;28;20052;-73
2022/01/25 02:54:47;;;;;;;3.90;2.45;;;;;;;;;;5080057;28;20472;-73
2022/01/25 02:57:51;;;;;;;7.55;3.25;;;;;;;;;;5090557;28;20048;-73
2022/01/25 03:00:55;;;;;;;4.68;2.70;;;;;;;;;;5091925;28;20036;-74
2022/01/25 03:04:00;;;;;;;4.07;2.15;;;;;;;;;;5091983;28;20488;-73
2022/01/25 03:07:04;;;;;;;3.85;2.17;;;;;;;;;;5091887;28;20036;-73
2022/01/25 03:10:09;;;;;;;4.30;2.40;;;;;;;;;;5091362;28;20036;-73
2022/01/25 03:13:21;;;;;;;3.63;2.42;;;;;;;;;;5091382;28;20040;-74
2022/01/25 03:16:34;;;;;;;5.10;2.63;;;;;;;;;;5091304;28;20376;-74
2022/01/25 03:23:05;;;;;;;4.28;2.92;;;;;;;;;;5091595;28;20040;-74
2022/01/25 03:26:09;;;;;;;4.40;2.20;;;;;;;;;;5090900;28;20040;-74
2022/01/25 03:29:13;;;;;;;7.72;3.63;;;;;;;;;;5091079;28;20036;-74
2022/01/25 03:32:18;;;;;;;7.00;3.53;;;;;;;;;;5091033;28;20039;-74
2022/01/25 03:35:22;;;;;;;8.13;3.50;;;;;;;;;;5091146;28;20044;-74
2022/01/25 03:38:27;;;;;;;4.53;2.40;;;;;;;;;;5091230;28;20032;-74
2022/01/25 03:41:31;;;;;;;5.55;2.67;;;;;;;;;;5091445;28;20036;-74
2022/01/25 03:44:36;;;;;;;6.43;2.42;;;;;;;;;;5091239;28;20040;-75
2022/01/25 03:48:00;;;;;;;4.15;2.55;;;;;;;;;;5090873;28;20032;-74
2022/01/25 03:51:04;;;;;;;4.75;2.42;;;;;;;;;;5090980;28;20052;-74
2022/01/25 03:54:08;;;;;;;6.80;2.70;;;;;;;;;;5091356;28;20040;-74
2022/01/25 03:57:13;;;;;;;5.63;2.58;;;;;;;;;;5091050;28;20040;-74
2022/01/25 04:00:18;;;;;;;5.47;2.17;;;;;;;;;;5090830;28;20028;-73
2022/01/25 04:03:30;;;;;;;4.68;2.30;;;;;;;;;;5090955;28;20036;-74
2022/01/25 04:06:36;;;;;;;6.32;2.67;;;;;;;;;;5090959;28;20040;-74
2022/01/25 04:09:40;;;;;;;4.50;2.75;;;;;;;;;;5082089;28;20040;-74
2022/01/25 04:12:48;;;;;;;4.78;2.70;;;;;;;;;;5095023;28;20056;-74
2022/01/25 04:15:55;;;;;;;5.07;3.20;;;;;;;;;;5094861;28;20036;-74
2022/01/25 04:25:16;;;;;;;5.60;3.05;;;;;;;;;;5094591;28;20484;-74
2022/01/25 04:28:20;;;;;;;6.75;3.45;;;;;;;;;;5094544;28;20028;-74
2022/01/25 04:31:25;;;;;;;5.25;2.88;;;;;;;;;;5094534;28;20044;-74
2022/01/25 04:51:22;;;;;;;6.55;2.80;;;;;;;;;;5094392;28;20484;-74
2022/01/25 04:57:58;;;;;;;8.32;3.25;;;;;;;;;;5094245;28;20028;-74
2022/01/25 05:01:03;;;;;;;6.43;2.80;;;;;;;;;;5093985;28;20028;-74
2022/01/25 05:04:13;;;;;;;4.90;2.50;;;;;;;;;;5093807;28;20040;-74
2022/01/25 05:07:41;;;;;;;6.70;3.10;;;;;;;;;;5093987;28;20040;-74
2022/01/25 05:14:21;;;;;;;6.45;2.92;;;;;;;;;;5093782;28;20036;-74
2022/01/25 05:17:36;;;;;;;4.40;3.20;;;;;;;;;;5093562;28;20058;-74
2022/01/25 05:24:03;;;;;;;6.07;2.90;;;;;;;;;;5093889;28;20479;-74
2022/01/25 05:27:09;;;;;;;6.15;3.38;;;;;;;;;;5093542;28;20476;-74
2022/01/25 05:30:13;;;;;;;13.35;3.55;;;;;;;;;;5093470;28;20032;-74
2022/01/25 05:33:17;;;;;;;6.32;3.65;;;;;;;;;;5093039;28;20488;-74
2022/01/25 05:36:22;;;;;;;5.35;3.28;;;;;;;;;;5093055;28;20028;-74
2022/01/25 05:39:36;;;;;;;5.28;2.78;;;;;;;;;;5080728;28;20460;-74
2022/01/25 05:49:05;;;;;;;16.80;4.72;;;;;;;;;;5093121;28;20504;-74
2022/01/25 05:52:09;;;;;;;10.35;4.25;;;;;;;;;;5093077;28;20048;-74
2022/01/25 05:55:13;;;;;;;7.20;3.65;;;;;;;;;;5092774;28;20036;-74
2022/01/25 05:58:18;;;;;;;7.07;4.22;;;;;;;;;;5092900;28;20036;-74
2022/01/25 06:01:22;;;;;;;7.57;4.47;;;;;;;;;;5092737;28;20036;-74
2022/01/25 06:04:27;;;;;;;10.05;4.82;;;;;;;;;;5092606;28;20032;-74
2022/01/25 06:07:32;;;;;;;10.65;5.25;;;;;;;;;;5092760;28;20043;-74
2022/01/25 06:10:37;;;;;;;10.20;5.50;;;;;;;;;;5092335;28;20028;-74
2022/01/25 06:13:41;;;;;;;12.73;5.93;;;;;;;;;;5092775;28;20372;-74
2022/01/25 06:16:46;;;;;;;14.02;4.47;;;;;;;;;;5092641;28;20032;-74
2022/01/25 06:19:50;;;;;;;5.90;4.15;;;;;;;;;;5092004;28;20043;-74
2022/01/25 06:22:55;;;;;;;8.98;4.60;;;;;;;;;;5080087;28;20044;-74
2022/01/25 06:25:59;;;;;;;10.30;4.85;;;;;;;;;;5092375;28;20039;-74
2022/01/25 06:29:03;;;;;;;18.33;6.97;;;;;;;;;;5092397;28;20515;-75
2022/01/25 06:32:08;;;;;;;58.78;8.30;;;;;;;;;;5092207;28;20048;-74
2022/01/25 06:35:12;;;;;;;13.13;5.97;;;;;;;;;;5092178;28;20518;-76
2022/01/25 06:38:16;;;;;;;14.13;4.50;;;;;;;;;;5091946;28;20408;-75
2022/01/25 06:41:21;;;;;;;20.83;14.93;;;;;;;;;;5091995;28;20032;-76
2022/01/25 06:44:25;;;;;;;14.07;6.85;;;;;;;;;;5091923;28;20039;-76
2022/01/25 06:47:30;;;;;;;26.98;12.48;;;;;;;;;;5092262;28;20043;-76
2022/01/25 06:50:34;;;;;;;57.97;25.75;;;;;;;;;;5091997;28;20051;-75
2022/01/25 06:53:39;;;;;;;76.10;29.02;;;;;;;;;;5092107;28;20063;-75
2022/01/25 06:56:43;;;;;;;116.60;45.97;;;;;;;;;;5091737;28;20495;-76
2022/01/25 06:59:47;;;;;;;279.85;111.10;;;;;;;;;;5091707;28;20039;-76
2022/01/25 07:02:51;;;;;;;320.50;131.55;;;;;;;;;;5091848;28;20506;-74
2022/01/25 07:05:56;;;;;;;317.20;139.95;;;;;;;;;;5091802;28;20051;-75
2022/01/25 07:09:02;;;;;;;431.70;203.95;;;;;;;;;;5091725;28;20043;-75
2022/01/25 07:12:06;;;;;;;444.17;207.00;;;;;;;;;;5091280;28;20541;-75
2022/01/25 07:15:12;;;;;;;371.75;175.27;;;;;;;;;;5079008;28;20071;-73
2022/01/25 07:18:18;;;;;;;367.40;166.65;;;;;;;;;;5091518;28;20043;-76
2022/01/25 07:21:22;;;;;;;346.08;158.80;;;;;;;;;;5091385;28;20047;-74
2022/01/25 07:24:27;;;;;;;180.20;83.55;;;;;;;;;;5091444;28;20051;-73
2022/01/25 07:27:31;;;;;;;118.60;54.05;;;;;;;;;;5091206;28;20399;-74
2022/01/25 07:30:35;;;;;;;100.32;46.17;;;;;;;;;;5091021;28;20059;-74
2022/01/25 07:33:40;;;;;;;106.93;46.60;;;;;;;;;;5090705;28;20059;-74
2022/01/25 07:36:45;;;;;;;38.38;17.30;;;;;;;;;;5091277;28;20039;-73
2022/01/25 07:39:49;;;;;;;29.60;13.77;;;;;;;;;;5090619;28;20407;-71
2022/01/25 07:42:53;;;;;;;21.67;11.73;;;;;;;;;;5090203;28;20190;-73
2022/01/25 07:46:03;;;;;;;28.75;11.40;;;;;;;;;;5090686;28;20047;-76
2022/01/25 07:49:12;;;;;;;17.90;9.07;;;;;;;;;;5090870;28;20047;-72
2022/01/25 07:52:16;;;;;;;17.63;7.32;;;;;;;;;;5077943;28;20071;-74
2022/01/25 07:55:20;;;;;;;12.18;6.72;;;;;;;;;;5077799;28;20024;-75
2022/01/25 07:58:24;;;;;;;17.65;6.88;;;;;;;;;;5090608;28;20028;-77
2022/01/25 08:01:29;;;;;;;14.80;7.43;;;;;;;;;;5090721;28;20055;-76
2022/01/25 08:04:33;;;;;;;15.50;7.30;;;;;;;;;;5090731;28;20032;-77
2022/01/25 08:07:38;;;;;;;18.30;7.38;;;;;;;;;;5090765;28;20035;-77
2022/01/25 08:10:42;;;;;;;19.80;6.97;;;;;;;;;;5090777;28;20028;-76
2022/01/25 08:13:49;;;;;;;15.15;7.50;;;;;;;;;;5091069;28;20040;-76
2022/01/25 08:16:53;;;;;;;15.98;7.70;;;;;;;;;;5090683;28;20028;-75
2022/01/25 08:19:57;;;;;;;22.30;8.18;;;;;;;;;;5090875;28;20046;-75
2022/01/25 08:23:02;;;;;;;14.50;5.78;;;;;;;;;;5090867;28;20036;-74
2022/01/25 08:26:06;;;;;;;13.25;5.50;;;;;;;;;;5090313;28;20515;-74
2022/01/25 08:29:10;;;;;;;11.07;5.15;;;;;;;;;;5078167;28;20040;-75
2022/01/25 08:32:14;;;;;;;9.43;4.75;;;;;;;;;;5090706;28;20040;-74
2022/01/25 08:35:19;;;;;;;9.95;4.80;;;;;;;;;;5090405;28;20048;-75
2022/01/25 08:38:24;;;;;;;9.30;4.55;;;;;;;;;;5090764;28;20468;-76
2022/01/25 08:41:28;;;;;;;7.47;2.83;;;;;;;;;;5090667;28;20139;-75
2022/01/25 08:44:32;;;;;;;4.95;2.97;;;;;;;;;;5078073;28;20039;-75
2022/01/25 08:47:36;;;;;;;5.47;3.00;;;;;;;;;;5090145;28;20032;-76
2022/01/25 08:50:40;;;;;;;6.57;2.75;;;;;;;;;;5090217;28;20070;-75
2022/01/25 08:53:45;;;;;;;5.47;2.40;;;;;;;;;;5090394;28;20036;-73
2022/01/25 08:56:49;;;;;;;4.00;2.25;;;;;;;;;;5094054;28;20047;-76
2022/01/25 08:59:53;;;;;;;7.70;3.60;;;;;;;;;;5094269;28;20040;-75
2022/01/25 09:02:59;;;;;;;4.20;2.00;;;;;;;;;;5093848;28;20039;-75
2022/01/25 09:06:04;;;;;;;5.80;2.50;;;;;;;;;;5093895;28;20036;-75
2022/01/25 09:09:10;;;;;;;9.15;2.83;;;;;;;;;;5093645;28;20040;-76
2022/01/25 09:12:14;;;;;;;5.63;2.67;;;;;;;;;;5080893;28;20491;-75
2022/01/25 09:15:18;;;;;;;6.53;2.83;;;;;;;;;;5093755;28;20036;-75
2022/01/25 09:18:22;;;;;;;8.18;2.38;;;;;;;;;;5094039;28;20040;-76
2022/01/25 09:21:27;;;;;;;4.95;3.20;;;;;;;;;;5093515;28;20040;-77
2022/01/25 09:24:31;;;;;;;8.68;2.55;;;;;;;;;;5093558;28;20369;-77
2022/01/25 09:27:36;;;;;;;6.63;2.80;;;;;;;;;;5093653;28;20349;-76
2022/01/25 09:30:40;;;;;;;6.22;3.05;;;;;;;;;;5093269;28;20360;-76
2022/01/25 09:33:45;;;;;;;5.05;2.83;;;;;;;;;;5093324;28;20044;-76
2022/01/25 09:36:50;;;;;;;7.28;2.70;;;;;;;;;;5093307;28;20044;-76
2022/01/25 09:39:58;;;;;;;4.75;2.22;;;;;;;;;;5093366;28;20044;-76
2022/01/25 09:43:21;;;;;;;5.28;2.60;;;;;;;;;;5081315;28;20036;-76
2022/01/25 09:50:27;;;;;;;4.15;2.72;;;;;;;;;;5080390;28;20032;-75
2022/01/25 09:53:33;;;;;;;4.45;2.33;;;;;;;;;;5092774;28;20040;-77
2022/01/25 09:56:38;;;;;;;7.47;2.92;;;;;;;;;;5092811;28;20040;-75
2022/01/25 09:59:42;;;;;;;11.73;3.40;;;;;;;;;;5092899;28;20044;-75
2022/01/25 10:06:22;;;;;;;5.72;2.40;;;;;;;;;;5072669;28;20032;-75
2022/01/25 10:09:28;;;;;;;7.40;3.60;;;;;;;;;;5092360;28;20036;-78
2022/01/25 10:12:57;;;;;;;6.18;3.63;;;;;;;;;;5092251;28;20048;-80
2022/01/25 10:16:03;;;;;;;11.60;3.00;;;;;;;;;;5021306;28;20048;-75
2022/01/25 10:19:10;;;;;;;5.00;2.78;;;;;;;;;;5090790;28;20047;-78
2022/01/25 10:22:40;;;;;;;7.15;3.78;;;;;;;;;;5090586;28;20040;-80
2022/01/25 10:30:21;;;;;;;5.18;2.90;;;;;;;;;;5067286;28;20036;-78
2022/01/25 10:33:56;;;;;;;5.32;2.80;;;;;;;;;;5073226;28;20040;-80
2022/01/25 10:37:06;;;;;;;6.03;3.15;;;;;;;;;;5091977;28;20040;-79
2022/01/25 10:40:14;;;;;;;7.15;3.28;;;;;;;;;;5092126;28;20044;-73
2022/01/25 10:43:23;;;;;;;7.07;4.20;;;;;;;;;;5091685;28;20484;-75
2022/01/25 10:46:35;;;;;;;7.13;3.50;;;;;;;;;;5091707;28;20484;-75
2022/01/25 10:50:06;;;;;;;6.03;3.38;;;;;;;;;;5091686;28;20036;-73
2022/01/25 10:53:46;;;;;;;7.05;4.03;;;;;;;;;;5079156;28;20044;-82
2022/01/25 10:56:58;;;;;;;6.95;3.72;;;;;;;;;;5091722;28;20040;-81
2022/01/25 11:00:07;;;;;;;6.07;3.45;;;;;;;;;;5091465;28;20036;-78
2022/01/25 11:03:24;;;;;;;6.82;3.90;;;;;;;;;;5091367;28;20373;-76
2022/01/25 11:06:28;;;;;;;9.18;3.45;;;;;;;;;;5078781;28;20028;-76
2022/01/25 11:09:40;;;;;;;8.05;3.83;;;;;;;;;;5091221;28;20546;-77
2022/01/25 11:13:21;;;;;;;5.97;3.67;;;;;;;;;;5091456;28;20044;-74
2022/01/25 11:16:11;;;;;;;7.50;3.80;;;;;;;;;;5091325;28;20032;-77
2022/01/25 11:19:16;;;;;;;5.80;3.22;;;;;;;;;;5067307;28;20373;-77
2022/01/25 11:22:21;;;;;;;6.03;3.30;;;;;;;;;;5078923;28;20400;-72
2022/01/25 11:25:26;;;;;;;8.57;3.88;;;;;;;;;;5091109;28;20036;-76
2022/01/25 11:28:34;;;;;;;7.15;3.72;;;;;;;;;;5090955;28;20036;-76
2022/01/25 11:31:40;;;;;;;7.47;3.80;;;;;;;;;;5078486;28;20048;-77
2022/01/25 11:35:11;;;;;;;7.50;4.47;;;;;;;;;;5091120;28;20392;-74
2022/01/25 11:38:49;;;;;;;8.65;4.80;;;;;;;;;;5091321;28;20369;-78
2022/01/25 11:42:04;;;;;;;8.05;4.90;;;;;;;;;;5091312;28;20353;-76
2022/01/25 11:45:12;;;;;;;9.75;3.80;;;;;;;;;;5090930;28;20536;-75
2022/01/25 11:48:23;;;;;;;9.02;3.90;;;;;;;;;;5090732;28;20044;-76
2022/01/25 11:51:28;;;;;;;13.45;4.18;;;;;;;;;;5090953;28;20048;-74
2022/01/25 11:54:32;;;;;;;13.68;5.35;;;;;;;;;;5090741;28;20510;-76
2022/01/25 11:57:45;;;;;;;8.73;4.97;;;;;;;;;;5091064;28;20047;-78
2022/01/25 12:01:01;;;;;;;7.25;4.43;;;;;;;;;;5090875;28;20040;-77
2022/01/25 12:04:06;;;;;;;5.53;3.70;;;;;;;;;;5090884;28;20032;-76
2022/01/25 12:07:23;;;;;;;14.20;5.25;;;;;;;;;;5090701;28;20040;-76
2022/01/25 12:10:40;;;;;;;8.73;4.03;;;;;;;;;;5090812;28;20036;-77
2022/01/25 12:13:44;;;;;;;7.97;3.90;;;;;;;;;;5090334;28;20484;-76
2022/01/25 12:17:04;;;;;;;5.28;3.40;;;;;;;;;;5090782;28;20032;-79
2022/01/25 12:20:21;;;;;;;7.38;4.10;;;;;;;;;;5090975;28;20036;-78
2022/01/25 12:23:44;;;;;;;10.65;4.75;;;;;;;;;;5090616;28;20036;-77
2022/01/25 12:26:58;;;;;;;10.25;4.97;;;;;;;;;;5090698;28;20043;-77
2022/01/25 12:30:14;;;;;;;8.80;4.35;;;;;;;;;;5093670;28;20400;-78
2022/01/25 12:33:25;;;;;;;8.32;5.03;;;;;;;;;;5094144;28;20051;-78
2022/01/25 12:36:37;;;;;;;6.95;5.00;;;;;;;;;;5094338;28;20040;-77
2022/01/25 12:39:41;;;;;;;6.95;4.20;;;;;;;;;;5094182;28;20040;-78
2022/01/25 12:42:47;;;;;;;7.20;4.72;;;;;;;;;;5081767;28;20107;-79
2022/01/25 12:45:54;;;;;;;11.50;4.05;;;;;;;;;;5093820;28;20472;-75
2022/01/25 12:48:59;;;;;;;6.45;3.60;;;;;;;;;;5094004;28;20376;-77
2022/01/25 12:52:05;;;;;;;6.85;3.80;;;;;;;;;;5081352;28;20047;-77
2022/01/25 12:55:09;;;;;;;10.65;4.90;;;;;;;;;;5093910;28;20040;-78
2022/01/25 12:58:14;;;;;;;7.25;3.95;;;;;;;;;;5094119;28;20047;-78
2022/01/25 13:01:20;;;;;;;14.52;7.40;;;;;;;;;;5094209;28;20061;-78
2022/01/25 13:04:24;;;;;;;8.00;4.40;;;;;;;;;;5081322;28;20048;-77
2022/01/25 13:07:28;;;;;;;8.25;3.55;;;;;;;;;;5093616;28;20036;-79
2022/01/25 13:10:34;;;;;;;6.50;3.47;;;;;;;;;;5093213;28;20040;-77
2022/01/25 13:17:03;;;;;;;9.25;4.47;;;;;;;;;;5093763;28;20060;-77
2022/01/25 13:20:08;;;;;;;11.80;4.82;;;;;;;;;;5081218;28;20036;-76
2022/01/25 13:23:13;;;;;;;5.82;3.88;;;;;;;;;;5093378;28;20059;-76
2022/01/25 13:26:20;;;;;;;11.10;4.00;;;;;;;;;;5092927;28;20036;-76
2022/01/25 13:32:52;;;;;;;14.60;4.53;;;;;;;;;;5093264;28;20051;-76
2022/01/25 13:35:56;;;;;;;12.95;4.03;;;;;;;;;;5093276;28;20048;-77
2022/01/25 13:39:00;;;;;;;9.30;4.43;;;;;;;;;;5092936;28;20043;-76
2022/01/25 13:42:09;;;;;;;7.50;3.65;;;;;;;;;;5092509;28;20032;-77
2022/01/25 13:48:40;;;;;;;12.40;4.43;;;;;;;;;;5093291;28;20036;-77
2022/01/25 13:51:46;;;;;;;8.57;3.97;;;;;;;;;;5092725;28;20036;-76
2022/01/25 13:54:51;;;;;;;10.77;4.00;;;;;;;;;;5093120;28;20036;-77
2022/01/25 13:57:55;;;;;;;18.25;5.57;;;;;;;;;;5093006;28;20024;-77
2022/01/25 14:01:01;;;;;;;5.57;3.45;;;;;;;;;;5092871;28;20424;-76
2022/01/25 14:04:06;;;;;;;8.23;4.43;;;;;;;;;;5092608;28;20032;-77
2022/01/25 14:07:15;;;;;;;10.32;5.05;;;;;;;;;;5092832;28;20040;-77
2022/01/25 14:10:24;;;;;;;10.50;4.18;;;;;;;;;;5080195;28;20045;-76
2022/01/25 14:23:43;;;;;;;9.40;3.97;;;;;;;;;;5079901;28;20036;-78
2022/01/25 14:26:48;;;;;;;5.82;3.90;;;;;;;;;;5092366;28;20055;-77
2022/01/25 14:29:53;;;;;;;5.00;3.20;;;;;;;;;;5092108;28;20043;-77
2022/01/25 14:33:10;;;;;;;4.50;3.33;;;;;;;;;;5091600;28;20051;-77
2022/01/25 14:36:15;;;;;;;5.82;3.80;;;;;;;;;;5091997;28;20036;-77
2022/01/25 14:39:19;;;;;;;8.27;3.35;;;;;;;;;;5092696;28;20032;-75
2022/01/25 14:42:24;;;;;;;6.65;3.83;;;;;;;;;;5092192;28;20074;-77
2022/01/25 14:45:28;;;;;;;6.00;3.65;;;;;;;;;;5092163;28;20048;-76
2022/01/25 14:48:36;;;;;;;5.93;3.50;;;;;;;;;;5092126;28;20368;-78
2022/01/25 14:51:42;;;;;;;10.23;3.85;;;;;;;;;;5091505;28;20036;-77
2022/01/25 14:54:46;;;;;;;10.55;4.65;;;;;;;;;;5091809;28;20040;-77
2022/01/25 14:58:04;;;;;;;8.15;4.20;;;;;;;;;;5091678;28;20036;-77
2022/01/25 15:01:10;;;;;;;9.80;4.40;;;;;;;;;;5091761;28;20381;-77
2022/01/25 15:04:14;;;;;;;9.50;5.22;;;;;;;;;;5091594;28;20039;-76
2022/01/25 15:07:22;;;;;;;13.93;6.05;;;;;;;;;;5090893;28;20048;-74
2022/01/25 15:10:31;;;;;;;10.20;6.40;;;;;;;;;;5089896;28;20036;-75
2022/01/25 15:13:36;;;;;;;6.50;4.10;;;;;;;;;;5078464;28;20048;-74
2022/01/25 15:16:40;;;;;;;5.68;3.58;;;;;;;;;;5078960;28;20040;-75
2022/01/25 15:19:44;;;;;;;7.25;4.15;;;;;;;;;;5090701;28;20036;-75
2022/01/25 15:22:49;;;;;;;7.55;3.95;;;;;;;;;;5091352;28;20044;-74
2022/01/25 15:25:57;;;;;;;10.50;4.50;;;;;;;;;;5091176;28;20044;-73
2022/01/25 15:29:03;;;;;;;11.02;4.30;;;;;;;;;;5078728;28;20043;-75
2022/01/25 15:32:08;;;;;;;7.53;4.60;;;;;;;;;;5091306;28;20044;-76
2022/01/25 15:35:15;;;;;;;7.10;4.38;;;;;;;;;;5090837;28;20052;-73
2022/01/25 15:38:19;;;;;;;7.97;4.65;;;;;;;;;;5078100;28;20119;-72
2022/01/25 15:41:24;;;;;;;12.07;6.38;;;;;;;;;;5078660;28;20040;-74
2022/01/25 15:44:49;;;;;;;11.18;4.93;;;;;;;;;;5090947;28;20036;-73
2022/01/25 15:47:53;;;;;;;15.55;5.85;;;;;;;;;;5090856;28;20036;-73
2022/01/25 15:50:58;;;;;;;12.75;8.13;;;;;;;;;;5090941;28;20377;-73
2022/01/25 15:54:02;;;;;;;12.25;7.28;;;;;;;;;;5090852;28;20044;-77
2022/01/25 15:57:07;;;;;;;7.20;4.68;;;;;;;;;;5091145;28;20047;-77
2022/01/25 16:00:12;;;;;;;9.23;5.07;;;;;;;;;;5091016;28;20040;-74
2022/01/25 16:03:20;;;;;;;14.88;7.30;;;;;;;;;;5078782;28;20036;-74
2022/01/25 16:06:24;;;;;;;9.13;6.13;;;;;;;;;;5095181;28;20040;-76
2022/01/25 16:09:28;;;;;;;10.98;5.68;;;;;;;;;;5082308;28;20036;-76
2022/01/25 16:12:33;;;;;;;12.75;5.00;;;;;;;;;;5094608;28;20055;-77
2022/01/25 16:15:38;;;;;;;15.10;6.38;;;;;;;;;;5094546;28;20047;-73
2022/01/25 16:18:43;;;;;;;18.08;9.25;;;;;;;;;;5094373;28;20500;-72
2022/01/25 16:21:47;;;;;;;25.67;9.75;;;;;;;;;;5094634;28;20032;-72
2022/01/25 16:24:51;;;;;;;30.75;11.75;;;;;;;;;;5094356;28;20044;-72
2022/01/25 16:27:56;;;;;;;46.92;11.57;;;;;;;;;;5094037;28;20043;-75
2022/01/25 16:31:06;;;;;;;51.97;14.77;;;;;;;;;;5081789;28;20054;-74
2022/01/25 16:34:13;;;;;;;31.92;14.88;;;;;;;;;;5093731;28;20055;-74
2022/01/25 16:37:17;;;;;;;27.67;12.95;;;;;;;;;;5094402;28;20039;-72
2022/01/25 16:40:22;;;;;;;31.52;13.60;;;;;;;;;;5094037;28;20047;-72
2022/01/25 16:43:26;;;;;;;36.10;16.35;;;;;;;;;;5094189;28;20062;-74
2022/01/25 16:46:30;;;;;;;33.90;19.30;;;;;;;;;;5081885;28;20046;-74
2022/01/25 16:49:35;;;;;;;67.47;19.45;;;;;;;;;;5081620;28;20039;-74
2022/01/25 16:52:39;;;;;;;62.42;16.48;;;;;;;;;;5093977;28;20047;-73
2022/01/25 16:55:43;;;;;;;41.78;17.15;;;;;;;;;;5079515;28;20047;-73
2022/01/25 16:58:49;;;;;;;77.32;20.55;;;;;;;;;;5080690;28;20043;-74
2022/01/25 17:01:53;;;;;;;91.85;22.00;;;;;;;;;;5093494;28;20039;-71
2022/01/25 17:04:58;;;;;;;105.65;37.83;;;;;;;;;;5093289;28;20499;-73
2022/01/25 17:08:03;;;;;;;74.55;35.80;;;;;;;;;;5093216;28;20502;-71
2022/01/25 17:11:07;;;;;;;73.38;33.92;;;;;;;;;;5092558;28;20051;-71
2022/01/25 17:14:12;;;;;;;73.55;37.35;;;;;;;;;;5092520;28;20055;-71
2022/01/25 17:17:16;;;;;;;77.18;43.70;;;;;;;;;;5079782;28;20054;-70
2022/01/25 17:20:21;;;;;;;84.30;44.65;;;;;;;;;;5093085;28;20051;-71
2022/01/25 17:23:25;;;;;;;87.97;44.72;;;;;;;;;;5093530;28;20499;-74
2022/01/25 17:26:29;;;;;;;88.65;46.38;;;;;;;;;;5080807;28;20051;-76
2022/01/25 17:29:34;;;;;;;85.35;44.05;;;;;;;;;;5093512;28;20058;-73
2022/01/25 17:32:39;;;;;;;90.80;45.38;;;;;;;;;;5069349;28;20491;-73
2022/01/25 17:35:43;;;;;;;80.32;43.33;;;;;;;;;;5080541;28;20043;-71
2022/01/25 17:38:47;;;;;;;82.30;39.47;;;;;;;;;;5093174;28;20046;-73
2022/01/25 17:41:52;;;;;;;66.97;34.35;;;;;;;;;;5093065;28;20391;-72
2022/01/25 17:44:57;;;;;;;70.68;34.10;;;;;;;;;;5092552;28;20043;-76
2022/01/25 17:48:01;;;;;;;70.57;34.42;;;;;;;;;;5080160;28;20035;-75
2022/01/25 17:51:05;;;;;;;76.32;38.65;;;;;;;;;;5092434;28;20043;-74
2022/01/25 17:54:10;;;;;;;77.35;42.15;;;;;;;;;;5080137;28;20411;-75
2022/01/25 17:57:14;;;;;;;79.00;40.15;;;;;;;;;;5092936;28;20106;-75
2022/01/25 18:00:19;;;;;;;81.60;42.72;;;;;;;;;;5092616;28;20046;-77
2022/01/25 18:03:23;;;;;;;98.10;42.58;;;;;;;;;;5092503;28;20577;-74
2022/01/25 18:06:28;;;;;;;97.35;45.35;;;;;;;;;;5092854;28;20071;-73
2022/01/25 18:09:32;;;;;;;83.30;43.85;;;;;;;;;;5092813;28;20047;-78
2022/01/25 18:12:37;;;;;;;88.93;46.10;;;;;;;;;;5068350;28;20051;-74
2022/01/25 18:15:45;;;;;;;88.70;43.53;;;;;;;;;;5091491;28;20039;-74
2022/01/25 18:18:50;;;;;;;60.80;35.53;;;;;;;;;;5077819;28;20047;-74
2022/01/25 18:21:57;;;;;;;65.15;31.63;;;;;;;;;;5091252;28;20047;-74
2022/01/25 18:25:08;;;;;;;50.95;27.83;;;;;;;;;;5091948;28;20051;-74
2022/01/25 18:28:12;;;;;;;66.20;38.75;;;;;;;;;;5091922;28;20051;-73
2022/01/25 18:31:17;;;;;;;55.70;31.58;;;;;;;;;;5091713;28;20039;-75
2022/01/25 18:34:21;;;;;;;58.30;32.85;;;;;;;;;;5091574;28;20059;-74
2022/01/25 18:37:25;;;;;;;58.67;32.35;;;;;;;;;;5079330;28;20039;-74
2022/01/25 18:40:30;;;;;;;61.67;33.75;;;;;;;;;;5092083;28;20059;-75
2022/01/25 18:43:34;;;;;;;117.95;50.38;;;;;;;;;;5091601;28;20039;-75
2022/01/25 18:46:40;;;;;;;80.63;42.20;;;;;;;;;;5091879;28;20044;-75
2022/01/25 18:49:44;;;;;;;87.40;44.20;;;;;;;;;;5091827;28;20050;-74
2022/01/25 18:52:49;;;;;;;80.72;44.28;;;;;;;;;;5078906;28;20122;-74
2022/01/25 18:55:53;;;;;;;93.68;45.53;;;;;;;;;;5091665;28;20055;-75
2022/01/25 18:58:58;;;;;;;87.97;44.78;;;;;;;;;;5091579;28;20411;-74
2022/01/25 19:02:11;;;;;;;79.75;46.10;;;;;;;;;;5091419;28;20487;-75
2022/01/25 19:05:16;;;;;;;77.00;45.60;;;;;;;;;;5091366;28;20039;-74
2022/01/25 19:08:21;;;;;;;92.72;47.28;;;;;;;;;;5091680;28;20043;-74
2022/01/25 19:11:26;;;;;;;90.82;46.50;;;;;;;;;;5078966;28;20396;-75
2022/01/25 19:14:31;;;;;;;83.28;45.72;;;;;;;;;;5091144;28;20059;-75
2022/01/25 19:17:36;;;;;;;88.55;45.35;;;;;;;;;;5091674;28;20043;-75
2022/01/25 19:20:40;;;;;;;87.70;43.42;;;;;;;;;;5091479;28;20047;-75
2022/01/25 19:23:45;;;;;;;100.53;54.28;;;;;;;;;;5091527;28;20039;-74
2022/01/25 19:26:50;;;;;;;79.07;47.47;;;;;;;;;;5091144;28;20514;-74
2022/01/25 19:29:55;;;;;;;88.80;49.25;;;;;;;;;;5078596;28;20047;-74
2022/01/25 19:33:03;;;;;;;95.35;56.28;;;;;;;;;;5091245;28;20126;-74
2022/01/25 19:36:08;;;;;;;96.38;56.83;;;;;;;;;;5050946;28;20052;-75
2022/01/25 19:39:13;;;;;;;104.20;57.88;;;;;;;;;;5050348;28;20036;-75
2022/01/25 19:42:17;;;;;;;97.75;54.75;;;;;;;;;;5050784;28;20047;-75
2022/01/25 19:45:22;;;;;;;102.57;56.33;;;;;;;;;;5051009;28;20385;-75
2022/01/25 19:48:26;;;;;;;107.93;59.63;;;;;;;;;;5050746;28;20048;-75
2022/01/25 19:51:32;;;;;;;123.07;71.22;;;;;;;;;;5050857;28;20043;-75
2022/01/25 19:54:39;;;;;;;134.00;76.97;;;;;;;;;;5050179;28;20072;-75
2022/01/25 19:57:43;;;;;;;139.70;81.53;;;;;;;;;;5050036;28;20060;-74
2022/01/25 20:00:48;;;;;;;152.38;86.32;;;;;;;;;;5049604;28;20052;-75
2022/01/25 20:03:52;;;;;;;147.38;85.78;;;;;;;;;;5050004;28;20048;-74
2022/01/25 20:07:00;;;;;;;162.15;91.97;;;;;;;;;;5050566;28;20039;-75
2022/01/25 20:10:09;;;;;;;178.40;100.85;;;;;;;;;;5050888;28;20048;-75
2022/01/25 20:13:13;;;;;;;214.18;120.18;;;;;;;;;;5050410;28;20060;-75
2022/01/25 20:16:19;;;;;;;207.20;121.60;;;;;;;;;;5050878;28;20044;-75
2022/01/25 20:19:23;;;;;;;206.13;116.95;;;;;;;;;;5050424;28;20056;-74
2022/01/25 20:22:37;;;;;;;202.00;124.00;;;;;;;;;;5050421;28;20210;-74
2022/01/25 20:28:52;;;;;;;201.90;122.70;;;;;;;;;;5049657;28;20508;-74
2022/01/25 20:31:56;;;;;;;177.98;111.28;;;;;;;;;;5049852;28;20519;-74
2022/01/25 20:35:01;;;;;;;165.10;99.93;;;;;;;;;;5082397;28;20404;-74
2022/01/25 20:38:05;;;;;;;162.02;99.28;;;;;;;;;;5090500;28;20047;-74
2022/01/25 20:41:09;;;;;;;164.55;98.95;;;;;;;;;;5090940;28;20051;-74
2022/01/25 20:44:13;;;;;;;154.35;98.50;;;;;;;;;;5090517;28;20563;-74
2022/01/25 20:47:18;;;;;;;146.55;90.15;;;;;;;;;;5090334;28;20067;-74
2022/01/25 20:50:22;;;;;;;151.38;90.45;;;;;;;;;;5092286;28;20043;-74